Time;durP1;ratioP1;P1;durP2;ratioP2;P2;SDS_P1;SDS_P2;PMS_P1;PMS_P2;Temp;Humidity;BMP_temperature;BMP_pressure;BME280_temperature;BME280_humidity;BME280_pressure;Samples;Min_cycle;Max_cycle;Signal;HPM_P1;HPM_P2
2023/01/28 00:02:04;;;;;;;26.5;16.3;;;;;;;-0.41;89.0293;939.0148;;;;
2023/01/28 00:04:39;;;;;;;30;16.1;;;;;;;-0.51;89.1084;939.0399;;;;
2023/01/28 00:07:13;;;;;;;26.6;16.5;;;;;;;-0.57;89.38379;939.0095;;;;
2023/01/28 00:09:45;;;;;;;27.9;15.9;;;;;;;-0.59;89.35742;939.0421;;;;
2023/01/28 00:12:16;;;;;;;29.6;16.4;;;;;;;-0.53;89.45996;939.0132;;;;
2023/01/28 00:14:50;;;;;;;29.1;15.9;;;;;;;-0.48;89.28027;938.9999;;;;
2023/01/28 00:17:21;;;;;;;28;15.5;;;;;;;-0.37;89.2168;939.0187;;;;
2023/01/28 00:19:59;;;;;;;27.2;16.2;;;;;;;-0.39;89.24414;939.0574;;;;
2023/01/28 00:22:25;;;;;;;26.8;16.3;;;;;;;-0.41;88.90625;939.0273;;;;
2023/01/28 00:24:55;;;;;;;29.3;16.5;;;;;;;-0.33;88.95703;939.0667;;;;
2023/01/28 00:27:21;;;;;;;25.5;15.8;;;;;;;-0.19;88.74023;939.1044;;;;
2023/01/28 00:29:49;;;;;;;27.7;16.5;;;;;;;-0.14;88.51855;939.0867;;;;
2023/01/28 00:32:15;;;;;;;27.3;15.7;;;;;;;-0.05;88.13574;938.995;;;;
2023/01/28 00:34:40;;;;;;;25.5;15.1;;;;;;;0.03;87.83887;939.0781;;;;
2023/01/28 00:38:24;;;;;;;27.4;15.9;;;;;;;0.03;87.47168;939.111;;;;
2023/01/28 00:40:52;;;;;;;28.5;16.1;;;;;;;-0.05;87.55664;939.1459;;;;
2023/01/28 00:43:20;;;;;;;27.7;16.3;;;;;;;-0.07;87.65332;939.0999;;;;
2023/01/28 00:45:45;;;;;;;29.4;16.9;;;;;;;-0.1;87.82422;939.0925;;;;
2023/01/28 00:48:13;;;;;;;29.3;17.2;;;;;;;-0.04;87.83691;939.0817;;;;
2023/01/28 00:50:39;;;;;;;30;17.8;;;;;;;-0.03;87.92871;939.0916;;;;
2023/01/28 00:53:05;;;;;;;29.3;17.4;;;;;;;0.02;87.7832;939.0818;;;;
2023/01/28 00:55:30;;;;;;;31.7;17.6;;;;;;;0.01;87.54785;938.9763;;;;
2023/01/28 00:57:55;;;;;;;29.5;16.8;;;;;;;-0.06;87.55469;939.0847;;;;
2023/01/28 01:00:39;;;;;;;30.1;17.2;;;;;;;-0.02;87.47363;939.037;;;;
2023/01/28 01:03:07;;;;;;;31.6;17;;;;;;;0.03;87.29492;939.0402;;;;
2023/01/28 01:05:33;;;;;;;27;15.5;;;;;;;-0.01;87.1875;938.9385;;;;
2023/01/28 01:10:26;;;;;;;27.2;16.2;;;;;;;0.01;87.3584;939.0547;;;;
2023/01/28 01:12:51;;;;;;;25;14.2;;;;;;;0.06;87.26758;939.0264;;;;
2023/01/28 01:15:20;;;;;;;25.6;13.9;;;;;;;0.09;87.21777;939.0203;;;;
2023/01/28 01:18:16;;;;;;;24.6;13.4;;;;;;;0.01;87.44727;939.0664;;;;
2023/01/28 01:20:44;;;;;;;25.7;13.6;;;;;;;0.04;87.3418;939.0911;;;;
2023/01/28 01:23:06;;;;;;;25;12.9;;;;;;;0.14;87.15039;939.0212;;;;
2023/01/28 01:25:33;;;;;;;21.1;12.3;;;;;;;0.11;86.74414;939.0541;;;;
2023/01/28 01:27:58;;;;;;;23.2;12;;;;;;;0.15;86.66406;939.068;;;;
2023/01/28 01:30:24;;;;;;;24.2;12;;;;;;;0.19;86.37012;939.0234;;;;
2023/01/28 01:32:49;;;;;;;18.1;10.5;;;;;;;0.21;86.08398;939.1133;;;;
2023/01/28 01:35:19;;;;;;;19.1;10.5;;;;;;;0.15;85.98438;939.0367;;;;
2023/01/28 01:37:44;;;;;;;19.5;10.3;;;;;;;0.12;85.85254;938.9433;;;;
2023/01/28 01:40:16;;;;;;;19.2;10.5;;;;;;;0.14;85.78027;939.0119;;;;
2023/01/28 01:42:46;;;;;;;18.7;10.1;;;;;;;0.09;85.69141;939.0084;;;;
2023/01/28 01:45:11;;;;;;;19.3;11.1;;;;;;;0.12;85.5293;939.0318;;;;
2023/01/28 01:47:36;;;;;;;17.2;9.5;;;;;;;0.22;85.35059;939.0897;;;;
2023/01/28 01:50:02;;;;;;;16.4;9.5;;;;;;;0.24;85.01953;939.1392;;;;
2023/01/28 01:52:27;;;;;;;18.1;9.7;;;;;;;0.2;84.99023;939.1144;;;;
2023/01/28 01:54:53;;;;;;;16.2;9.9;;;;;;;0.22;85.13867;939.1305;;;;
2023/01/28 01:57:18;;;;;;;19.1;10.4;;;;;;;-0.02;85.32324;939.1569;;;;
2023/01/28 01:59:43;;;;;;;18;9.8;;;;;;;-0.06;85.09375;939.1636;;;;
2023/01/28 02:02:11;;;;;;;16.2;10.2;;;;;;;0;85.05078;939.1566;;;;
2023/01/28 02:04:37;;;;;;;18.3;10.2;;;;;;;-0.07;85.23438;939.1253;;;;
2023/01/28 02:07:02;;;;;;;17.7;9.5;;;;;;;-0.09;84.87695;939.1017;;;;
2023/01/28 02:09:28;;;;;;;16.4;9.8;;;;;;;-0.23;85.07227;939.1314;;;;
2023/01/28 02:11:53;;;;;;;17.9;10.1;;;;;;;-0.21;85.24023;939.1166;;;;
2023/01/28 02:14:22;;;;;;;15.8;10.3;;;;;;;-0.38;85.31738;939.1133;;;;
2023/01/28 02:16:47;;;;;;;17.5;10.5;;;;;;;-0.43;85.41992;939.0432;;;;
2023/01/28 02:22:40;;;;;;;16.7;10.1;;;;;;;-0.52;85.72363;939.0706;;;;
2023/01/28 02:25:05;;;;;;;15.4;9.5;;;;;;;-0.47;85.94434;939.0655;;;;
2023/01/28 02:27:30;;;;;;;16.9;10.2;;;;;;;-0.49;85.86328;939.0215;;;;
2023/01/28 02:29:56;;;;;;;16.9;9.1;;;;;;;-0.47;86.64746;938.9359;;;;
2023/01/28 02:32:21;;;;;;;16.7;9.7;;;;;;;-0.38;86.7998;939.0041;;;;
2023/01/28 02:34:46;;;;;;;15.7;9.3;;;;;;;-0.27;86.64355;938.9141;;;;
2023/01/28 02:37:11;;;;;;;15.9;9.5;;;;;;;-0.31;86.52344;938.9896;;;;
2023/01/28 02:39:36;;;;;;;17.2;9.5;;;;;;;-0.42;87.16895;939.0274;;;;
2023/01/28 02:42:02;;;;;;;16.4;10.4;;;;;;;-0.55;87.47656;939.0491;;;;
2023/01/28 02:44:27;;;;;;;15.2;9.4;;;;;;;-0.43;87.39844;939.0829;;;;
2023/01/28 02:49:20;;;;;;;15.7;10;;;;;;;-0.33;87.54297;939.1144;;;;
2023/01/28 02:51:45;;;;;;;15.9;9.6;;;;;;;-0.33;87.4209;939.1409;;;;
2023/01/28 02:54:11;;;;;;;15.3;9.8;;;;;;;-0.23;87.22949;939.0779;;;;
2023/01/28 02:56:36;;;;;;;16.7;10;;;;;;;-0.19;86.99414;939.0524;;;;
2023/01/28 02:59:29;;;;;;;14.7;9.6;;;;;;;-0.09;86.64746;939.1683;;;;
2023/01/28 03:01:29;;;;;;;15.7;10.1;;;;;;;-0.04;86.45605;939.1036;;;;
2023/01/28 03:03:55;;;;;;;16.2;10;;;;;;;-0.08;86.24805;939.1744;;;;
2023/01/28 03:06:20;;;;;;;16.3;10;;;;;;;-0.13;86.68262;939.1804;;;;
2023/01/28 03:37:48;;;;;;;17.1;10.9;;;;;;;0.02;85.74512;939.3621;;;;
2023/01/28 03:40:19;;;;;;;18.4;10.9;;;;;;;0.11;85.60742;939.3651;;;;
2023/01/28 03:42:44;;;;;;;18.4;11.3;;;;;;;0.15;85.48047;939.3819;;;;
2023/01/28 03:45:09;;;;;;;17.8;11.2;;;;;;;0.1;85.59277;939.3423;;;;
2023/01/28 03:47:39;;;;;;;18.3;11.7;;;;;;;-0.02;86.01465;939.4747;;;;
2023/01/28 03:50:06;;;;;;;20.6;12.5;;;;;;;-0.17;86.59766;939.4922;;;;
2023/01/28 03:52:35;;;;;;;21.3;11.8;;;;;;;-0.06;86.49512;939.492;;;;
2023/01/28 03:55:00;;;;;;;19.8;11.4;;;;;;;-0.03;86.4375;939.454;;;;
2023/01/28 03:57:30;;;;;;;18.8;12.3;;;;;;;0.09;86.34863;939.4624;;;;
2023/01/28 03:59:56;;;;;;;20.1;11.9;;;;;;;0.15;86.08496;939.4203;;;;
2023/01/28 04:02:39;;;;;;;21.4;11.9;;;;;;;0.13;85.76855;939.4709;;;;
2023/01/28 04:05:05;;;;;;;18.6;11.8;;;;;;;0.13;86.01172;939.5106;;;;
2023/01/28 04:07:28;;;;;;;21;12;;;;;;;0.17;86.0752;939.5447;;;;
2023/01/28 04:09:56;;;;;;;22.2;12.5;;;;;;;0.15;86.2168;939.5775;;;;
2023/01/28 04:12:24;;;;;;;18.6;12.4;;;;;;;0.03;85.99219;939.5721;;;;
2023/01/28 04:18:18;;;;;;;21.2;12.3;;;;;;;-0.15;87.43652;939.5478;;;;
2023/01/28 04:20:46;;;;;;;24.4;12.4;;;;;;;-0.43;88.35742;939.5313;;;;
2023/01/28 04:23:11;;;;;;;21.4;12.8;;;;;;;-0.41;88.56152;939.5488;;;;
2023/01/28 04:25:36;;;;;;;23.5;14;;;;;;;-0.37;88.44824;939.4802;;;;
2023/01/28 04:28:03;;;;;;;24.5;13.7;;;;;;;-0.37;88.61328;939.5087;;;;
2023/01/28 04:30:28;;;;;;;23.2;13.1;;;;;;;-0.44;88.86719;939.5237;;;;
2023/01/28 04:32:56;;;;;;;22.5;13.7;;;;;;;-0.42;88.83789;939.5648;;;;
2023/01/28 04:35:21;;;;;;;24;13.4;;;;;;;-0.31;88.76074;939.5886;;;;
2023/01/28 04:37:51;;;;;;;22.8;13.6;;;;;;;-0.43;89.21387;939.6041;;;;
2023/01/28 04:40:21;;;;;;;25.2;14;;;;;;;-0.39;89.07715;939.5759;;;;
2023/01/28 04:42:48;;;;;;;26;14.9;;;;;;;-0.32;88.83594;939.5627;;;;
2023/01/28 04:45:21;;;;;;;26.6;14.6;;;;;;;-0.39;88.77637;939.605;;;;
2023/01/28 04:47:46;;;;;;;26.1;15;;;;;;;-0.47;89.04883;939.5958;;;;
2023/01/28 04:50:16;;;;;;;23.4;13.3;;;;;;;-0.56;89.4209;939.6622;;;;
2023/01/28 04:52:44;;;;;;;25.3;13.8;;;;;;;-0.64;89.93555;939.6599;;;;
2023/01/28 04:55:09;;;;;;;27.5;14.4;;;;;;;-0.64;90.14941;939.7283;;;;
2023/01/28 04:57:36;;;;;;;25.2;14.2;;;;;;;-0.64;90.21387;939.7849;;;;
2023/01/28 05:00:02;;;;;;;27;15.3;;;;;;;-0.66;90.12109;939.7683;;;;
2023/01/28 05:02:28;;;;;;;26.6;15.5;;;;;;;-0.72;90.33203;939.7872;;;;
2023/01/28 05:05:00;;;;;;;25.6;14.6;;;;;;;-0.69;90.4248;939.8338;;;;
2023/01/28 05:07:23;;;;;;;27.1;14.9;;;;;;;-0.64;90.27148;939.8549;;;;
2023/01/28 05:09:52;;;;;;;25.6;14.8;;;;;;;-0.62;90.03027;939.8786;;;;
2023/01/28 05:12:17;;;;;;;25;14.7;;;;;;;-0.71;90;939.9018;;;;
2023/01/28 05:14:42;;;;;;;26.5;15.4;;;;;;;-0.58;90.16211;939.9286;;;;
2023/01/28 05:17:07;;;;;;;25.5;14.9;;;;;;;-0.5;89.82227;939.9041;;;;
2023/01/28 05:19:38;;;;;;;27;15.4;;;;;;;-0.39;89.12207;939.9091;;;;
2023/01/28 05:22:05;;;;;;;26.5;15.1;;;;;;;-0.35;88.71973;939.9481;;;;
2023/01/28 05:24:30;;;;;;;25.6;14.6;;;;;;;-0.4;88.74316;939.8923;;;;
2023/01/28 05:26:56;;;;;;;25.3;14.6;;;;;;;-0.4;88.49609;939.9214;;;;
2023/01/28 05:29:27;;;;;;;26.3;15.6;;;;;;;-0.4;88.65234;939.9918;;;;
2023/01/28 05:31:57;;;;;;;26.2;14.8;;;;;;;-0.38;88.63379;939.9675;;;;
2023/01/28 05:34:28;;;;;;;26.4;15.7;;;;;;;-0.38;88.19043;940.0451;;;;
2023/01/28 05:36:59;;;;;;;27.5;15.3;;;;;;;-0.53;88.38086;939.9907;;;;
2023/01/28 05:39:24;;;;;;;26;15;;;;;;;-0.59;88.54395;939.9903;;;;
2023/01/28 05:41:54;;;;;;;26.1;14.9;;;;;;;-0.71;89.15332;940.0126;;;;
2023/01/28 05:44:19;;;;;;;24.2;13.8;;;;;;;-0.7;89.3457;940.055;;;;
2023/01/28 05:46:46;;;;;;;26.7;15.4;;;;;;;-0.68;89.31836;940.031;;;;
2023/01/28 05:49:12;;;;;;;26.7;15.3;;;;;;;-0.59;89.21094;940.0638;;;;
2023/01/28 05:51:40;;;;;;;25.1;14.9;;;;;;;-0.62;89.23926;940.1325;;;;
2023/01/28 05:54:05;;;;;;;23.8;14.4;;;;;;;-0.59;89.12402;940.0994;;;;
2023/01/28 05:56:33;;;;;;;24.9;14.9;;;;;;;-0.58;88.88086;940.116;;;;
2023/01/28 05:58:58;;;;;;;28.1;15.4;;;;;;;-0.61;88.97754;940.1068;;;;
2023/01/28 06:01:26;;;;;;;24.7;14.1;;;;;;;-0.47;88.81543;940.1541;;;;
2023/01/28 06:03:55;;;;;;;28.4;15.3;;;;;;;-0.45;88.4541;940.1818;;;;
2023/01/28 06:06:20;;;;;;;26.3;15.1;;;;;;;-0.52;88.46094;940.2328;;;;
2023/01/28 06:08:48;;;;;;;25.5;15.1;;;;;;;-0.57;88.62695;940.21;;;;
2023/01/28 06:11:13;;;;;;;26.5;15.1;;;;;;;-0.49;88.40137;940.269;;;;
2023/01/28 06:14:31;;;;;;;26.2;15.5;;;;;;;-0.43;88.37793;940.325;;;;
2023/01/28 06:16:58;;;;;;;25.3;14.5;;;;;;;-0.57;88.68262;940.3542;;;;
2023/01/28 06:19:23;;;;;;;26.3;15.1;;;;;;;-0.51;89.08398;940.3982;;;;
2023/01/28 06:21:51;;;;;;;27.3;15.9;;;;;;;-0.36;88.59473;940.3872;;;;
2023/01/28 06:24:16;;;;;;;27.5;15.4;;;;;;;-0.27;88.40234;940.4444;;;;
2023/01/28 06:26:42;;;;;;;26.1;15;;;;;;;-0.25;88.08301;940.3931;;;;
2023/01/28 06:29:09;;;;;;;27.9;15.7;;;;;;;-0.31;88.17188;940.4503;;;;
2023/01/28 06:31:34;;;;;;;27.9;15.3;;;;;;;-0.19;87.99609;940.4045;;;;
2023/01/28 06:34:01;;;;;;;26.9;14.5;;;;;;;-0.13;87.45117;940.4772;;;;
2023/01/28 06:36:26;;;;;;;29.4;16;;;;;;;-0.15;87.09082;940.5231;;;;
2023/01/28 06:38:56;;;;;;;26;14.8;;;;;;;-0.2;87.14844;940.5212;;;;
2023/01/28 06:41:27;;;;;;;27.1;15.1;;;;;;;-0.17;86.99805;940.5298;;;;
2023/01/28 06:43:52;;;;;;;26.4;15.1;;;;;;;-0.15;86.6123;940.6323;;;;
2023/01/28 06:46:18;;;;;;;28.3;15.4;;;;;;;-0.26;86.90137;940.6514;;;;
2023/01/28 06:48:44;;;;;;;27.8;15.2;;;;;;;-0.3;86.98145;940.6969;;;;
2023/01/28 06:51:09;;;;;;;28.8;15;;;;;;;-0.34;87.51953;940.6934;;;;
2023/01/28 06:53:37;;;;;;;26.6;15.3;;;;;;;-0.26;87.31152;940.7929;;;;
2023/01/28 06:56:02;;;;;;;25.6;14.8;;;;;;;-0.23;87.26367;940.7507;;;;
2023/01/28 06:58:29;;;;;;;28;15.8;;;;;;;-0.38;87.47852;940.8204;;;;
2023/01/28 07:00:54;;;;;;;29.7;16.4;;;;;;;-0.33;87.58789;940.8166;;;;
2023/01/28 07:03:23;;;;;;;26.7;15.1;;;;;;;-0.3;87.41504;940.761;;;;
2023/01/28 07:05:48;;;;;;;26.9;15.2;;;;;;;-0.5;87.59668;940.7562;;;;
2023/01/28 07:08:18;;;;;;;26.9;15.9;;;;;;;-0.42;87.8252;940.821;;;;
2023/01/28 07:10:48;;;;;;;27.3;15.7;;;;;;;-0.36;87.69141;940.7994;;;;
2023/01/28 07:13:12;;;;;;;29.4;16.1;;;;;;;-0.29;87.69531;940.8226;;;;
2023/01/28 07:15:48;;;;;;;26.9;15.8;;;;;;;-0.2;87.30469;940.7817;;;;
2023/01/28 07:18:13;;;;;;;29.7;16.1;;;;;;;-0.12;86.66406;940.7924;;;;
2023/01/28 07:20:45;;;;;;;28.9;16.1;;;;;;;-0.26;86.8457;940.8267;;;;
2023/01/28 07:23:11;;;;;;;30.5;16.4;;;;;;;-0.35;87.29492;940.832;;;;
2023/01/28 07:25:37;;;;;;;28.4;15.9;;;;;;;-0.39;87.42969;940.8766;;;;
2023/01/28 07:28:02;;;;;;;30.7;17.4;;;;;;;-0.43;87.58789;940.9006;;;;
2023/01/28 07:30:30;;;;;;;27.4;15.4;;;;;;;-0.57;88.19336;940.8481;;;;
2023/01/28 07:32:56;;;;;;;29.6;16.3;;;;;;;-0.55;89.11133;940.8881;;;;
2023/01/28 07:35:23;;;;;;;30.7;16.4;;;;;;;-0.48;89.04883;940.9319;;;;
2023/01/28 07:37:48;;;;;;;30.1;16;;;;;;;-0.48;88.81543;940.9445;;;;
2023/01/28 07:40:16;;;;;;;27.4;15.4;;;;;;;-0.45;88.52051;940.9711;;;;
2023/01/28 07:42:41;;;;;;;28.3;15.9;;;;;;;-0.5;88.47559;940.9503;;;;
2023/01/28 07:45:08;;;;;;;33.1;17.1;;;;;;;-0.46;88.37402;940.9715;;;;
2023/01/28 07:47:33;;;;;;;27.2;16.4;;;;;;;-0.42;88.15918;940.9512;;;;
2023/01/28 07:49:59;;;;;;;32.4;16.2;;;;;;;-0.48;88.45703;940.9849;;;;
2023/01/28 07:52:24;;;;;;;28.5;16.2;;;;;;;-0.35;88.34082;940.9445;;;;
2023/01/28 07:54:53;;;;;;;29.2;16.1;;;;;;;-0.33;87.91113;941.0012;;;;
2023/01/28 07:57:22;;;;;;;30.3;17.1;;;;;;;-0.32;87.99023;940.9227;;;;
2023/01/28 07:59:43;;;;;;;30.4;17.5;;;;;;;-0.15;87.82617;940.9894;;;;
2023/01/28 08:02:12;;;;;;;29.8;16.4;;;;;;;-0.08;87.25098;940.961;;;;
2023/01/28 08:04:39;;;;;;;28.4;16.1;;;;;;;0.06;86.9668;940.9332;;;;
2023/01/28 08:07:02;;;;;;;28.9;16.5;;;;;;;0.2;86.58398;940.9881;;;;
2023/01/28 08:09:28;;;;;;;28.6;16.6;;;;;;;0.14;85.95801;941.0332;;;;
2023/01/28 08:11:55;;;;;;;30.8;16.8;;;;;;;0.16;85.93066;941.1078;;;;
2023/01/28 08:14:20;;;;;;;33.3;17;;;;;;;0.03;86.13672;941.1297;;;;
2023/01/28 08:16:47;;;;;;;29.4;16.5;;;;;;;-0.05;86.61035;941.1364;;;;
2023/01/28 08:19:11;;;;;;;30.4;16.4;;;;;;;0.04;86.77344;941.1917;;;;
2023/01/28 08:21:39;;;;;;;33.4;17.5;;;;;;;0.1;86.55078;941.1602;;;;
2023/01/28 08:24:04;;;;;;;30;16.5;;;;;;;0.11;86.43164;941.2267;;;;
2023/01/28 08:26:31;;;;;;;27.9;15.8;;;;;;;0.06;86.4668;941.3133;;;;
2023/01/28 08:28:56;;;;;;;29.8;15.9;;;;;;;0.08;86.60254;941.361;;;;
2023/01/28 08:31:24;;;;;;;31.6;16.9;;;;;;;0.14;86.41504;941.3924;;;;
2023/01/28 08:33:49;;;;;;;27.4;15.7;;;;;;;0.17;85.99707;941.3728;;;;
2023/01/28 08:36:16;;;;;;;30;16.2;;;;;;;0.12;85.79883;941.3845;;;;
2023/01/28 08:38:42;;;;;;;29.9;16.4;;;;;;;0.14;86.02539;941.4651;;;;
2023/01/28 08:41:06;;;;;;;28.1;15;;;;;;;0.07;86.2002;941.5233;;;;
2023/01/28 08:43:34;;;;;;;28.8;16.1;;;;;;;-0.08;86.4375;941.5574;;;;
2023/01/28 08:45:59;;;;;;;29.4;16.3;;;;;;;-0.23;86.96289;941.5472;;;;
2023/01/28 08:48:26;;;;;;;29.8;16.3;;;;;;;-0.03;87.03906;941.5047;;;;
2023/01/28 08:50:52;;;;;;;29.3;15.6;;;;;;;0.08;86.64746;941.4791;;;;
2023/01/28 08:53:18;;;;;;;30.5;16.5;;;;;;;0.14;85.87988;941.4701;;;;
2023/01/28 08:55:43;;;;;;;28;15.8;;;;;;;0.29;85.9668;941.5602;;;;
2023/01/28 08:58:10;;;;;;;25.6;14.9;;;;;;;0.42;85.19043;941.6038;;;;
2023/01/28 09:00:36;;;;;;;26.1;14.6;;;;;;;0.51;84.60449;941.6534;;;;
2023/01/28 09:03:03;;;;;;;26.4;14.5;;;;;;;0.54;84;941.6819;;;;
2023/01/28 09:05:28;;;;;;;24.8;14.3;;;;;;;0.4;83.82422;941.7062;;;;
2023/01/28 09:07:58;;;;;;;24.8;14.3;;;;;;;0.16;84.58008;941.7058;;;;
2023/01/28 09:10:27;;;;;;;26.4;15.2;;;;;;;0.33;84.43652;941.7606;;;;
2023/01/28 09:12:52;;;;;;;28.1;15;;;;;;;0.32;84.18945;941.7914;;;;
2023/01/28 09:15:20;;;;;;;29.1;14.9;;;;;;;0.32;84.13281;941.7551;;;;
2023/01/28 09:17:45;;;;;;;26.2;14.7;;;;;;;0.05;84.85938;941.7729;;;;
2023/01/28 09:20:13;;;;;;;27.7;14.7;;;;;;;-0.06;85.53711;941.8002;;;;
2023/01/28 09:22:38;;;;;;;30.1;15.7;;;;;;;-0.02;85.65918;941.787;;;;
2023/01/28 09:25:03;;;;;;;26.5;15.2;;;;;;;0.08;85.47949;941.7706;;;;
2023/01/28 09:27:30;;;;;;;26.4;14.6;;;;;;;0.05;85.68359;941.8309;;;;
2023/01/28 09:29:56;;;;;;;27;14.9;;;;;;;0.17;85.5957;941.8926;;;;
2023/01/28 09:32:26;;;;;;;27.7;16.1;;;;;;;0.15;85.71484;941.9432;;;;
2023/01/28 09:34:53;;;;;;;28.6;15.2;;;;;;;0.16;85.62988;941.9628;;;;
2023/01/28 09:37:19;;;;;;;27.6;15.4;;;;;;;0.27;85.86328;941.8532;;;;
2023/01/28 09:39:49;;;;;;;27.6;15.2;;;;;;;0.44;85.12891;941.9031;;;;
2023/01/28 09:42:18;;;;;;;27.1;15.1;;;;;;;0.58;84.45117;941.9392;;;;
2023/01/28 09:44:48;;;;;;;26.2;14.6;;;;;;;0.65;83.78516;941.908;;;;
2023/01/28 09:47:10;;;;;;;24.2;14;;;;;;;0.59;83.81934;941.8789;;;;
2023/01/28 09:49:36;;;;;;;29.5;15.1;;;;;;;0.75;83.5166;941.9871;;;;
2023/01/28 09:52:05;;;;;;;24.2;14.6;;;;;;;0.86;82.70117;941.9483;;;;
2023/01/28 09:54:30;;;;;;;26.4;14.6;;;;;;;0.86;82.18555;941.9536;;;;
2023/01/28 09:56:56;;;;;;;25;14.4;;;;;;;0.85;82.00684;941.9126;;;;
2023/01/28 09:59:25;;;;;;;24.5;13.9;;;;;;;0.87;81.8418;941.9219;;;;
2023/01/28 10:01:51;;;;;;;22.9;13.6;;;;;;;0.95;81.62402;941.9088;;;;
2023/01/28 10:04:16;;;;;;;21.9;13;;;;;;;0.98;81.14941;941.8265;;;;
2023/01/28 10:06:43;;;;;;;24.1;13;;;;;;;1.02;82.18359;941.8625;;;;
2023/01/28 10:09:08;;;;;;;23.9;13.3;;;;;;;1;81.80078;941.7693;;;;
2023/01/28 10:11:33;;;;;;;23.8;13.1;;;;;;;1.02;81.43555;941.8797;;;;
2023/01/28 10:13:59;;;;;;;23.6;13.5;;;;;;;1.02;81.22559;941.8681;;;;
2023/01/28 10:16:28;;;;;;;22.4;13.6;;;;;;;1.01;81.5459;941.8494;;;;
2023/01/28 10:18:53;;;;;;;21.9;13;;;;;;;1.15;81.27148;941.7977;;;;
2023/01/28 10:21:24;;;;;;;22.5;13.1;;;;;;;1.16;80.81543;941.7282;;;;
2023/01/28 10:23:50;;;;;;;24;12.8;;;;;;;1.21;80.77051;941.6631;;;;
2023/01/28 10:26:15;;;;;;;23.1;12.9;;;;;;;1.26;80.82324;941.5769;;;;
2023/01/28 10:28:41;;;;;;;22;12.4;;;;;;;1.34;80.24707;941.5515;;;;
2023/01/28 10:31:10;;;;;;;21.7;12.6;;;;;;;1.19;79.79297;941.5148;;;;
2023/01/28 10:33:38;;;;;;;21.6;12.4;;;;;;;1.05;80.61621;941.4883;;;;
2023/01/28 10:36:03;;;;;;;23.2;14;;;;;;;0.95;80.97559;941.5095;;;;
2023/01/28 10:38:35;;;;;;;22.2;13.2;;;;;;;1.11;80.76074;941.49;;;;
2023/01/28 10:41:06;;;;;;;23.3;13.2;;;;;;;1.15;80.47852;941.4447;;;;
2023/01/28 10:43:35;;;;;;;23.1;13.8;;;;;;;1.02;80.0957;941.4877;;;;
2023/01/28 10:46:00;;;;;;;21.2;13.1;;;;;;;1.25;80.06152;941.5106;;;;
2023/01/28 10:48:25;;;;;;;23.4;13.3;;;;;;;1.37;79.33496;941.5069;;;;
2023/01/28 10:50:51;;;;;;;23.4;13.8;;;;;;;1.35;79.63379;941.4767;;;;
2023/01/28 10:53:16;;;;;;;23.6;13.2;;;;;;;1.61;78.99121;941.4815;;;;
2023/01/28 10:55:42;;;;;;;22.1;12.7;;;;;;;1.75;77.78418;941.4344;;;;
2023/01/28 10:58:09;;;;;;;23.3;13.2;;;;;;;1.9;76.76074;941.4199;;;;
2023/01/28 11:00:34;;;;;;;23.3;13.6;;;;;;;1.87;76.90137;941.4225;;;;
2023/01/28 11:02:59;;;;;;;24.4;13.5;;;;;;;1.97;76.80762;941.4458;;;;
2023/01/28 11:05:29;;;;;;;22.9;14.3;;;;;;;2.22;76.91895;941.4562;;;;
2023/01/28 11:07:55;;;;;;;22.2;13.2;;;;;;;2.34;75.76563;941.4642;;;;
2023/01/28 11:10:21;;;;;;;21.5;13.6;;;;;;;2.84;74.68848;941.4204;;;;
2023/01/28 11:12:49;;;;;;;19.6;11.8;;;;;;;3.23;72.63477;941.4933;;;;
2023/01/28 11:15:15;;;;;;;21.8;13.2;;;;;;;2.92;73.45703;941.4547;;;;
2023/01/28 11:17:47;;;;;;;19;12.1;;;;;;;3.39;71.9668;941.5322;;;;
2023/01/28 11:20:12;;;;;;;19.5;11.8;;;;;;;3.68;70.59961;941.4659;;;;
2023/01/28 11:22:38;;;;;;;17.8;11.1;;;;;;;3.78;69.48047;941.5178;;;;
2023/01/28 11:25:03;;;;;;;17.5;11.1;;;;;;;3.53;69.10254;941.4722;;;;
2023/01/28 11:27:28;;;;;;;18.8;11.2;;;;;;;3.73;68.80859;941.4363;;;;
2023/01/28 11:30:00;;;;;;;17.5;10.9;;;;;;;3.55;68.7793;941.4515;;;;
2023/01/28 11:32:23;;;;;;;17.4;11.2;;;;;;;3.61;68.58789;941.467;;;;
2023/01/28 11:34:52;;;;;;;18.3;11.5;;;;;;;3.02;69.96289;941.4543;;;;
2023/01/28 11:37:17;;;;;;;21.2;12.5;;;;;;;3.1;70.24414;941.5142;;;;
2023/01/28 11:39:43;;;;;;;16.7;10.8;;;;;;;2.97;71.42383;941.562;;;;
2023/01/28 11:42:12;;;;;;;19.4;11.7;;;;;;;3.01;71.66797;941.5964;;;;
2023/01/28 11:44:38;;;;;;;18.5;11.8;;;;;;;2.39;72.46875;941.4917;;;;
2023/01/28 11:47:07;;;;;;;17.4;11.3;;;;;;;2.26;73.11816;941.5125;;;;
2023/01/28 11:49:35;;;;;;;17.7;11.4;;;;;;;2;74.11523;941.522;;;;
2023/01/28 11:52:00;;;;;;;19.1;12.1;;;;;;;1.96;74.70215;941.4519;;;;
2023/01/28 11:54:26;;;;;;;18.3;11;;;;;;;1.94;74.95605;941.4416;;;;
2023/01/28 11:56:51;;;;;;;17.9;11.1;;;;;;;1.93;75.06445;941.4096;;;;
2023/01/28 11:59:18;;;;;;;17.7;11.2;;;;;;;1.96;74.74707;941.335;;;;
2023/01/28 12:01:44;;;;;;;17.3;11;;;;;;;2.03;74.89258;941.2692;;;;
2023/01/28 12:04:09;;;;;;;17;11.4;;;;;;;2.04;74.88379;941.2681;;;;
2023/01/28 12:06:34;;;;;;;18.6;11.5;;;;;;;1.95;74.77734;941.313;;;;
2023/01/28 12:09:02;;;;;;;18.1;11.4;;;;;;;1.93;75.14355;941.2548;;;;
2023/01/28 12:12:10;;;;;;;18.7;11.8;;;;;;;2.05;74.875;941.2717;;;;
2023/01/28 12:13:52;;;;;;;18.9;12.1;;;;;;;1.83;75.2041;941.3114;;;;
2023/01/28 12:16:24;;;;;;;18.1;11.8;;;;;;;1.8;75.51074;941.2964;;;;
2023/01/28 12:18:52;;;;;;;20.5;12.1;;;;;;;1.96;75.82129;941.2188;;;;
2023/01/28 12:21:23;;;;;;;20.4;11.7;;;;;;;2.2;75.30273;941.265;;;;
2023/01/28 12:23:49;;;;;;;19.7;11.7;;;;;;;2.06;74.03516;941.2296;;;;
2023/01/28 12:26:13;;;;;;;17.6;10.7;;;;;;;2.11;74.86133;941.2554;;;;
2023/01/28 12:28:38;;;;;;;20.7;12.5;;;;;;;2.04;74.66016;941.199;;;;
2023/01/28 12:31:05;;;;;;;18.3;11.7;;;;;;;2.07;74.91113;941.2374;;;;
2023/01/28 12:33:30;;;;;;;20.2;12.4;;;;;;;1.85;76.09082;941.3329;;;;
2023/01/28 12:35:57;;;;;;;20.5;12.2;;;;;;;2.06;75.62598;941.2974;;;;
2023/01/28 12:38:21;;;;;;;18.9;11.7;;;;;;;2.19;74.41504;941.2676;;;;
2023/01/28 12:40:48;;;;;;;18.4;11.8;;;;;;;2.17;74.37988;941.2371;;;;
2023/01/28 12:43:13;;;;;;;17.9;11.8;;;;;;;2.37;73.96582;941.291;;;;
2023/01/28 12:45:39;;;;;;;18.3;11.2;;;;;;;2.43;73.37305;941.2845;;;;
2023/01/28 12:48:05;;;;;;;17.5;11.1;;;;;;;2.24;73.2041;941.2325;;;;
2023/01/28 12:50:28;;;;;;;16.8;10.7;;;;;;;2;73.9248;941.2248;;;;
2023/01/28 12:52:53;;;;;;;15.9;10.8;;;;;;;2.11;73.60742;941.2469;;;;
2023/01/28 12:55:19;;;;;;;16.5;10.7;;;;;;;1.97;73.88672;941.2629;;;;
2023/01/28 12:57:44;;;;;;;17.4;11.3;;;;;;;2.05;74.88574;941.2584;;;;
2023/01/28 13:00:09;;;;;;;18.2;10.8;;;;;;;1.94;74.1709;941.304;;;;
2023/01/28 13:02:34;;;;;;;16.4;10.6;;;;;;;1.81;74.31641;941.3185;;;;
2023/01/28 13:04:59;;;;;;;17.3;11.4;;;;;;;1.66;74.9834;941.3304;;;;
2023/01/28 13:07:24;;;;;;;17.3;11.5;;;;;;;1.58;75.7627;941.3713;;;;
2023/01/28 13:09:50;;;;;;;18;11.1;;;;;;;1.41;76.88477;941.4535;;;;
2023/01/28 13:12:18;;;;;;;16.6;10.6;;;;;;;1.53;76.86328;941.4704;;;;
2023/01/28 13:14:43;;;;;;;18.8;11.6;;;;;;;1.61;76.57422;941.4938;;;;
2023/01/28 13:17:10;;;;;;;16.7;10.4;;;;;;;1.72;76.09082;941.5204;;;;
2023/01/28 13:19:35;;;;;;;16.8;10.7;;;;;;;1.57;75.66016;941.5544;;;;
2023/01/28 13:22:00;;;;;;;15.2;10.4;;;;;;;1.67;76.05859;941.6169;;;;
2023/01/28 13:24:26;;;;;;;17.3;11;;;;;;;1.65;75.98828;941.6236;;;;
2023/01/28 13:26:51;;;;;;;18.6;11.1;;;;;;;1.65;75.6084;941.7061;;;;
2023/01/28 13:29:16;;;;;;;17.3;11;;;;;;;1.62;75.74805;941.7316;;;;
2023/01/28 13:31:41;;;;;;;18.9;11.3;;;;;;;1.64;75.78516;941.7363;;;;
2023/01/28 13:34:07;;;;;;;15.9;10.3;;;;;;;1.34;76.60352;941.6797;;;;
2023/01/28 13:36:31;;;;;;;16.8;10.8;;;;;;;1.31;76.64355;941.7269;;;;
2023/01/28 13:39:02;;;;;;;16.1;10.3;;;;;;;1.37;76.33105;941.7502;;;;
2023/01/28 13:41:32;;;;;;;18.6;11;;;;;;;1.3;76.68652;941.7875;;;;
2023/01/28 13:44:02;;;;;;;14.6;10;;;;;;;1.5;76.27344;941.7832;;;;
2023/01/28 13:46:27;;;;;;;15.5;10.5;;;;;;;1.52;76.05371;941.7946;;;;
2023/01/28 13:48:53;;;;;;;16.6;10.2;;;;;;;1.59;75.62109;941.7989;;;;
2023/01/28 13:51:17;;;;;;;16.5;10.3;;;;;;;1.59;75.31836;941.8836;;;;
2023/01/28 13:53:43;;;;;;;16;10;;;;;;;1.34;75.51953;941.8521;;;;
2023/01/28 13:56:08;;;;;;;16.9;10.1;;;;;;;1.46;75.59668;941.8198;;;;
2023/01/28 13:58:33;;;;;;;17.5;10.6;;;;;;;1.42;75.57715;941.8875;;;;
2023/01/28 14:01:03;;;;;;;18;10.8;;;;;;;1.44;75.81641;941.8762;;;;
2023/01/28 14:03:28;;;;;;;15.1;9.7;;;;;;;1.38;75.48145;941.8948;;;;
2023/01/28 14:05:54;;;;;;;15.4;9.3;;;;;;;1.29;75.86914;941.9549;;;;
2023/01/28 14:09:33;;;;;;;15.5;9.8;;;;;;;1.16;75.86719;941.9622;;;;
2023/01/28 14:11:58;;;;;;;16.9;10.5;;;;;;;1.15;76.48145;941.9908;;;;
2023/01/28 14:14:23;;;;;;;17.8;11.2;;;;;;;1.26;77.01367;941.8346;;;;
2023/01/28 14:16:52;;;;;;;16.7;10.4;;;;;;;1.2;77.58496;941.945;;;;
2023/01/28 14:19:17;;;;;;;17.3;10.6;;;;;;;1.36;77.35547;941.9692;;;;
2023/01/28 14:21:45;;;;;;;14.9;9.3;;;;;;;1.51;76.33301;941.8961;;;;
2023/01/28 14:24:14;;;;;;;16.2;9.6;;;;;;;1.57;75.25781;941.9584;;;;
2023/01/28 14:26:39;;;;;;;15;9.2;;;;;;;1.55;75.36621;942.0109;;;;
2023/01/28 14:29:04;;;;;;;14.6;9.2;;;;;;;1.52;75.03711;942.0858;;;;
2023/01/28 14:31:29;;;;;;;14.4;8.6;;;;;;;1.42;75.08496;942.0836;;;;
2023/01/28 14:33:58;;;;;;;13.2;8.8;;;;;;;1.36;75.5;942.0941;;;;
2023/01/28 14:36:24;;;;;;;13.5;8.3;;;;;;;1.31;75.43652;942.1072;;;;
2023/01/28 14:38:49;;;;;;;12.3;7.9;;;;;;;1.31;75.17969;942.166;;;;
2023/01/28 14:41:16;;;;;;;11.9;8.4;;;;;;;1.18;75.9043;942.1716;;;;
2023/01/28 14:43:41;;;;;;;13.7;8.7;;;;;;;1.03;76.62598;942.2079;;;;
2023/01/28 14:46:10;;;;;;;12.8;9;;;;;;;1.08;76.28809;942.2009;;;;
2023/01/28 14:48:38;;;;;;;13.3;9;;;;;;;1.08;76.7793;942.093;;;;
2023/01/28 14:51:08;;;;;;;14.3;9.7;;;;;;;1.19;76.51953;942.1149;;;;